createdAt,value
2023-08-29T00:00:23.950Z,101079.34
2023-08-29T00:02:53.977Z,101074.69
2023-08-29T00:05:22.490Z,101070.53
2023-08-29T00:07:50.831Z,101070.00
2023-08-29T00:10:19.234Z,101068.34
2023-08-29T00:12:47.560Z,101063.66
2023-08-29T00:15:16.035Z,101065.53
2023-08-29T00:17:45.191Z,101057.56
2023-08-29T00:20:13.722Z,101054.25
2023-08-29T00:22:42.144Z,101056.47
2023-08-29T00:25:10.677Z,101054.47
2023-08-29T00:27:39.049Z,101049.22
2023-08-29T00:30:07.905Z,101047.09
2023-08-29T00:32:36.283Z,101050.16
2023-08-29T00:35:04.844Z,101047.34
2023-08-29T00:37:34.357Z,101052.91
2023-08-29T00:40:03.090Z,101055.13
2023-08-29T00:42:31.540Z,101051.78
2023-08-29T00:44:59.922Z,101042.97
2023-08-29T00:47:28.786Z,101042.28
2023-08-29T00:49:57.304Z,101043.47
2023-08-29T00:52:25.806Z,101050.59
2023-08-29T00:54:54.101Z,101045.63
2023-08-29T00:57:22.595Z,101048.56
2023-08-29T00:59:51.079Z,101045.06
2023-08-29T01:02:20.346Z,101051.72
2023-08-29T01:04:48.755Z,101047.81
2023-08-29T01:07:19.925Z,101046.41
2023-08-29T01:09:48.335Z,101044.13
2023-08-29T01:12:17.739Z,101049.63
2023-08-29T01:14:58.453Z,101045.75
2023-08-29T01:17:30.064Z,101042.56
2023-08-29T01:19:59.464Z,101033.28
2023-08-29T01:22:38.340Z,101025.66
2023-08-29T01:25:30.103Z,101029.03
2023-08-29T01:27:58.465Z,101037.00
2023-08-29T01:30:27.185Z,101042.56
2023-08-29T01:32:56.059Z,101038.09
2023-08-29T01:35:24.485Z,101029.25
2023-08-29T01:37:52.870Z,101028.72
2023-08-29T01:40:21.380Z,101035.78
2023-08-29T01:42:49.718Z,101041.38
2023-08-29T01:45:18.054Z,101044.25
2023-08-29T01:47:46.545Z,101043.03
2023-08-29T01:50:15.332Z,101058.03
2023-08-29T01:52:43.678Z,101048.38
2023-08-29T01:55:12.127Z,101047.03
2023-08-29T01:57:41.769Z,101065.69
2023-08-29T02:00:10.798Z,101061.00
2023-08-29T02:02:39.714Z,101066.78
2023-08-29T02:05:08.554Z,101064.88
2023-08-29T02:07:37.022Z,101059.91
2023-08-29T02:10:05.678Z,101073.00
2023-08-29T02:12:34.015Z,101069.41
2023-08-29T02:15:03.629Z,101062.75
2023-08-29T02:17:32.051Z,101074.09
2023-08-29T02:20:00.711Z,101066.41
2023-08-29T02:22:30.515Z,101070.59
2023-08-29T02:25:01.014Z,101073.09
2023-08-29T02:27:29.418Z,101078.59
2023-08-29T02:29:58.812Z,101077.75
2023-08-29T02:32:27.270Z,101089.34
2023-08-29T02:34:56.185Z,101095.72
2023-08-29T02:37:25.454Z,101103.44
2023-08-29T02:39:53.876Z,101104.22
2023-08-29T02:42:22.263Z,101106.09
2023-08-29T02:44:50.721Z,101105.88
2023-08-29T02:47:19.478Z,101108.63
2023-08-29T02:49:47.811Z,101099.56
2023-08-29T02:52:16.168Z,101102.13
2023-08-29T02:54:44.560Z,101097.09
2023-08-29T02:57:12.927Z,101099.81
2023-08-29T02:59:41.291Z,101113.75
2023-08-29T03:02:09.685Z,101123.56
2023-08-29T03:04:38.065Z,101121.06
2023-08-29T03:07:06.605Z,101116.69
2023-08-29T03:09:35.208Z,101116.19
2023-08-29T03:12:03.650Z,101109.81
2023-08-29T03:14:32.047Z,101106.28
2023-08-29T03:17:00.426Z,101109.38
2023-08-29T03:19:28.935Z,101100.09
2023-08-29T03:21:57.251Z,101098.34
2023-08-29T03:24:25.584Z,101110.31
2023-08-29T03:26:53.910Z,101107.38
2023-08-29T03:29:22.313Z,101105.16
2023-08-29T03:31:50.673Z,101097.72
2023-08-29T03:34:19.028Z,101088.41
2023-08-29T03:36:47.366Z,101092.53
2023-08-29T03:39:15.755Z,101077.72
2023-08-29T03:41:44.183Z,101069.94
2023-08-29T03:44:13.375Z,101066.69
2023-08-29T03:46:41.743Z,101059.56
2023-08-29T03:49:10.088Z,101052.16
2023-08-29T03:51:38.438Z,101057.75
2023-08-29T03:54:06.817Z,101046.34
2023-08-29T03:56:35.176Z,101048.47
2023-08-29T03:59:05.186Z,101047.97
2023-08-29T04:01:33.624Z,101059.06
2023-08-29T04:04:04.018Z,101046.66
2023-08-29T04:06:35.670Z,101047.59
2023-08-29T04:09:04.805Z,101048.34
2023-08-29T04:11:33.166Z,101051.19
2023-08-29T04:14:02.217Z,101036.63
2023-08-29T04:16:30.606Z,101032.03
2023-08-29T04:18:59.058Z,101036.91
2023-08-29T04:21:27.400Z,101029.63
2023-08-29T04:23:55.991Z,101036.88
2023-08-29T04:26:24.362Z,101024.81
2023-08-29T04:28:52.780Z,101019.53
2023-08-29T04:31:22.086Z,101024.47
2023-08-29T04:33:50.546Z,101026.13
2023-08-29T04:36:18.912Z,101024.22
2023-08-29T04:38:50.307Z,101032.75
2023-08-29T04:41:18.625Z,101020.34
2023-08-29T04:43:46.971Z,101024.22
2023-08-29T04:46:15.403Z,101015.44
2023-08-29T04:48:43.916Z,101014.59
2023-08-29T04:51:12.235Z,101018.81
2023-08-29T04:53:41.075Z,101019.22
2023-08-29T04:56:09.951Z,101017.38
2023-08-29T04:58:38.318Z,101030.41
2023-08-29T05:01:07.784Z,101025.44
2023-08-29T05:03:36.232Z,101026.13
2023-08-29T05:06:04.678Z,101027.16
2023-08-29T05:08:35.897Z,101033.34
2023-08-29T05:11:04.736Z,101026.19
2023-08-29T05:13:33.211Z,101022.94
2023-08-29T05:16:01.675Z,101038.72
2023-08-29T05:18:30.143Z,101032.19
2023-08-29T05:20:58.513Z,101028.06
2023-08-29T05:23:26.873Z,101020.84
2023-08-29T05:25:55.306Z,101025.78
2023-08-29T05:28:23.856Z,101028.97
2023-08-29T05:30:52.437Z,101031.56
2023-08-29T05:33:20.765Z,101026.00
2023-08-29T05:35:49.199Z,101038.44
2023-08-29T05:38:17.572Z,101041.88
2023-08-29T05:40:45.939Z,101038.66
2023-08-29T05:43:14.777Z,101037.94
2023-08-29T05:45:43.434Z,101037.19
2023-08-29T05:48:11.847Z,101040.19
2023-08-29T05:50:43.643Z,101038.50
2023-08-29T05:53:11.981Z,101034.66
2023-08-29T05:55:40.345Z,101038.25
2023-08-29T05:58:09.200Z,101042.22
2023-08-29T06:00:38.747Z,101042.47
2023-08-29T06:03:08.284Z,101026.28
2023-08-29T06:05:37.797Z,101041.84
2023-08-29T06:08:17.360Z,101042.41
2023-08-29T06:10:47.605Z,101029.19
2023-08-29T06:13:16.039Z,101041.88
2023-08-29T06:15:44.497Z,101036.75
2023-08-29T06:18:12.909Z,101045.81
2023-08-29T06:20:41.400Z,101035.44
2023-08-29T06:23:09.704Z,101027.69
2023-08-29T06:25:38.038Z,101033.13
2023-08-29T06:28:06.793Z,101027.09
2023-08-29T06:30:36.050Z,101031.94
2023-08-29T06:33:07.493Z,101039.56
2023-08-29T06:35:39.544Z,101039.31
2023-08-29T06:38:08.755Z,101033.97
2023-08-29T06:40:37.769Z,101039.84
2023-08-29T06:43:06.189Z,101043.38
2023-08-29T06:45:34.563Z,101042.31
2023-08-29T06:48:03.163Z,101041.00
2023-08-29T06:50:31.620Z,101032.53
2023-08-29T06:52:59.963Z,101041.47
2023-08-29T06:55:28.874Z,101041.50
2023-08-29T06:57:57.232Z,101034.59
2023-08-29T07:00:25.651Z,101038.56
2023-08-29T07:02:54.203Z,101037.75
2023-08-29T07:05:22.780Z,101039.97
2023-08-29T07:07:51.257Z,101040.03
2023-08-29T07:10:19.868Z,101034.53
2023-08-29T07:12:49.784Z,101043.59
2023-08-29T07:15:18.306Z,101036.94
2023-08-29T07:17:46.844Z,101036.94
2023-08-29T07:20:16.921Z,101041.88
2023-08-29T07:22:45.281Z,101048.13
2023-08-29T07:25:14.168Z,101053.25
2023-08-29T07:27:42.544Z,101048.88
2023-08-29T07:30:15.797Z,101055.81
2023-08-29T07:32:45.288Z,101053.28
2023-08-29T07:35:15.229Z,101056.09
2023-08-29T07:37:43.761Z,101051.59
2023-08-29T07:40:12.172Z,101056.59
2023-08-29T07:42:40.661Z,101050.00
2023-08-29T07:45:09.707Z,101055.53
2023-08-29T07:47:38.136Z,101056.59
2023-08-29T07:50:06.708Z,101063.25
2023-08-29T07:52:35.910Z,101054.13
2023-08-29T07:55:05.665Z,101051.06
2023-08-29T07:57:34.039Z,101057.72
2023-08-29T08:00:02.492Z,101058.44
2023-08-29T08:02:30.926Z,101057.78
2023-08-29T08:04:59.320Z,101059.44
2023-08-29T08:07:27.747Z,101063.56
2023-08-29T08:09:56.085Z,101056.81
2023-08-29T08:12:24.507Z,101066.91
2023-08-29T08:14:54.199Z,101062.50
2023-08-29T08:17:22.665Z,101053.56
2023-08-29T08:19:51.135Z,101061.81
2023-08-29T08:22:19.655Z,101065.44
2023-08-29T08:24:48.108Z,101064.81
2023-08-29T08:27:17.828Z,101061.97
2023-08-29T08:29:46.306Z,101061.56
2023-08-29T08:32:14.971Z,101063.50
2023-08-29T08:34:43.351Z,101061.31
2023-08-29T08:37:11.683Z,101065.09
2023-08-29T08:39:40.086Z,101066.34
2023-08-29T08:42:10.686Z,101066.22
2023-08-29T08:44:39.705Z,101058.59
2023-08-29T08:47:08.397Z,101066.34
2023-08-29T08:49:36.897Z,101056.84
2023-08-29T08:52:06.401Z,101059.69
2023-08-29T08:54:34.969Z,101071.31
2023-08-29T08:57:03.761Z,101056.25
2023-08-29T08:59:32.087Z,101062.38
2023-08-29T09:02:00.450Z,101057.84
2023-08-29T09:04:28.911Z,101061.06
2023-08-29T09:06:57.348Z,101059.19
2023-08-29T09:09:26.997Z,101053.19
2023-08-29T09:11:56.615Z,101056.63
2023-08-29T09:14:25.625Z,101062.03
2023-08-29T09:16:54.856Z,101053.66
2023-08-29T09:19:24.084Z,101066.28
2023-08-29T09:21:52.733Z,101059.88
2023-08-29T09:24:31.990Z,101069.47
2023-08-29T09:27:01.081Z,101069.78
2023-08-29T09:29:30.923Z,101072.34
2023-08-29T09:31:59.525Z,101062.63
2023-08-29T09:34:29.079Z,101065.13
2023-08-29T09:36:58.124Z,101065.50
2023-08-29T09:39:27.377Z,101062.81
2023-08-29T09:42:02.658Z,101064.28
2023-08-29T09:44:35.102Z,101059.94
2023-08-29T09:47:03.992Z,101063.81
2023-08-29T09:49:42.299Z,101062.75
2023-08-29T09:52:11.293Z,101057.03
2023-08-29T09:54:48.138Z,101054.28
2023-08-29T09:57:19.426Z,101047.19
2023-08-29T09:59:47.992Z,101050.69
2023-08-29T10:02:19.508Z,101050.34
2023-08-29T10:05:09.909Z,101044.34
2023-08-29T10:07:42.950Z,101044.31
2023-08-29T10:10:11.795Z,101043.81
2023-08-29T10:12:40.540Z,101041.41
2023-08-29T10:15:09.535Z,101044.47
2023-08-29T10:17:38.413Z,101041.16
2023-08-29T10:20:13.451Z,101041.41
2023-08-29T10:22:46.482Z,101038.75
2023-08-29T10:25:15.088Z,101042.13
2023-08-29T10:27:43.756Z,101036.28
2023-08-29T10:30:12.568Z,101043.69
2023-08-29T10:32:42.380Z,101034.75
2023-08-29T10:35:18.712Z,101034.63
2023-08-29T10:37:50.433Z,101031.84
2023-08-29T10:40:19.529Z,101032.66
2023-08-29T10:42:55.680Z,101037.78
2023-08-29T10:45:42.767Z,101030.16
2023-08-29T10:48:16.163Z,101039.97
2023-08-29T10:51:06.263Z,101035.56
2023-08-29T10:53:58.576Z,101026.97
2023-08-29T10:56:39.478Z,101019.97
2023-08-29T10:59:27.936Z,101020.50
2023-08-29T11:02:14.811Z,101024.97
2023-08-29T11:04:55.963Z,101015.47
2023-08-29T11:07:26.303Z,101013.44
2023-08-29T11:10:14.669Z,101010.50
2023-08-29T11:13:01.681Z,101001.72
2023-08-29T11:15:48.499Z,101000.13
2023-08-29T11:18:20.236Z,101010.59
2023-08-29T11:20:48.846Z,101008.66
2023-08-29T11:23:17.737Z,101008.44
2023-08-29T11:25:50.821Z,101005.56
2023-08-29T11:28:19.757Z,101007.28
2023-08-29T11:30:48.239Z,101006.31
2023-08-29T11:33:16.725Z,101001.53
2023-08-29T11:35:45.104Z,100998.63
2023-08-29T11:38:13.504Z,101003.06
2023-08-29T11:40:47.470Z,101001.59
2023-08-29T11:44:04.202Z,100990.91
2023-08-29T11:46:19.808Z,100989.09
2023-08-29T11:48:48.453Z,100994.59
2023-08-29T11:51:16.783Z,100995.16
2023-08-29T11:53:45.185Z,100986.91
2023-08-29T11:56:13.629Z,100987.09
2023-08-29T11:58:42.725Z,100979.06
2023-08-29T12:01:12.073Z,100977.59
2023-08-29T12:03:40.753Z,100974.81
2023-08-29T12:06:13.317Z,100980.56
2023-08-29T12:08:45.579Z,100967.75
2023-08-29T12:11:16.785Z,100976.00
2023-08-29T12:13:59.534Z,100975.19
2023-08-29T12:16:29.644Z,100979.31
2023-08-29T12:19:06.033Z,100976.78
2023-08-29T12:21:34.412Z,100973.56
2023-08-29T12:24:12.486Z,100976.50
2023-08-29T12:26:40.971Z,100974.03
2023-08-29T12:29:09.399Z,100978.22
2023-08-29T12:31:37.724Z,100971.41
2023-08-29T12:34:06.083Z,100967.78
2023-08-29T12:36:34.547Z,100963.59
2023-08-29T12:39:04.216Z,100957.56
2023-08-29T12:41:32.619Z,100953.25
2023-08-29T12:44:01.026Z,100956.09
2023-08-29T12:46:31.725Z,100951.41
2023-08-29T12:49:00.203Z,100957.19
2023-08-29T12:51:28.563Z,100947.00
2023-08-29T12:53:56.886Z,100953.94
2023-08-29T12:56:25.282Z,100948.69
2023-08-29T12:58:54.252Z,100944.75
2023-08-29T13:01:24.267Z,100947.03
2023-08-29T13:03:52.733Z,100958.38
2023-08-29T13:06:22.509Z,100946.31
2023-08-29T13:08:53.317Z,100946.34
2023-08-29T13:11:21.737Z,100936.41
2023-08-29T13:13:50.111Z,100928.66
2023-08-29T13:16:19.062Z,100934.59
2023-08-29T13:18:47.795Z,100918.69
2023-08-29T13:21:16.141Z,100921.88
2023-08-29T13:23:44.514Z,100919.72
2023-08-29T13:26:12.902Z,100916.88
2023-08-29T13:28:41.232Z,100915.53
2023-08-29T13:31:09.615Z,100911.28
2023-08-29T13:33:37.994Z,100906.00
2023-08-29T13:36:06.851Z,100905.44
2023-08-29T13:38:35.195Z,100896.59
2023-08-29T13:41:03.562Z,100900.78
2023-08-29T13:43:31.924Z,100891.53
2023-08-29T13:46:00.838Z,100891.84
2023-08-29T13:48:29.402Z,100891.16
2023-08-29T13:50:58.374Z,100886.38
2023-08-29T13:53:26.730Z,100876.97
2023-08-29T13:55:55.288Z,100881.44
2023-08-29T13:58:23.662Z,100889.63
2023-08-29T14:00:52.051Z,100885.88
2023-08-29T14:03:33.239Z,100886.31
2023-08-29T14:06:01.994Z,100885.47
2023-08-29T14:08:30.466Z,100885.50
2023-08-29T14:11:06.511Z,100880.81
2023-08-29T14:13:37.315Z,100876.13
2023-08-29T14:16:05.817Z,100879.38
2023-08-29T14:18:37.357Z,100877.69
2023-08-29T14:21:05.699Z,100880.44
2023-08-29T14:23:34.013Z,100885.81
2023-08-29T14:26:02.915Z,100877.41
2023-08-29T14:28:31.437Z,100875.94
2023-08-29T14:31:00.139Z,100885.25
2023-08-29T14:33:28.548Z,100885.06
2023-08-29T14:35:57.440Z,100885.50
2023-08-29T14:38:25.856Z,100877.84
2023-08-29T14:40:54.220Z,100881.88
2023-08-29T14:43:22.649Z,100876.41
2023-08-29T14:45:50.992Z,100882.59
2023-08-29T14:48:19.328Z,100875.97
2023-08-29T14:50:47.730Z,100882.34
2023-08-29T14:53:16.064Z,100893.94
2023-08-29T14:55:44.440Z,100891.94
2023-08-29T14:58:12.827Z,100895.00
2023-08-29T15:00:43.464Z,100892.91
2023-08-29T15:03:13.971Z,100891.91
2023-08-29T15:05:42.547Z,100895.72
2023-08-29T15:08:10.895Z,100888.31
2023-08-29T15:10:39.224Z,100893.66
2023-08-29T15:13:08.504Z,100895.16
2023-08-29T15:15:38.472Z,100902.56
2023-08-29T15:18:08.211Z,100905.44
2023-08-29T15:20:39.679Z,100903.03
2023-08-29T15:23:08.846Z,100907.66
2023-08-29T15:25:37.381Z,100908.31
2023-08-29T15:28:06.126Z,100907.50
2023-08-29T15:30:34.904Z,100914.63
2023-08-29T15:33:03.471Z,100908.13
2023-08-29T15:35:31.909Z,100904.25
2023-08-29T15:38:00.375Z,100899.56
2023-08-29T15:40:28.955Z,100905.66
2023-08-29T15:42:58.382Z,100906.53
2023-08-29T15:45:26.972Z,100908.75
2023-08-29T15:47:56.489Z,100909.66
2023-08-29T15:50:25.867Z,100911.69
2023-08-29T15:52:54.257Z,100907.69
2023-08-29T15:55:22.639Z,100910.88
2023-08-29T15:57:51.368Z,100908.47
2023-08-29T16:00:20.913Z,100907.72
2023-08-29T16:02:50.158Z,100902.06
2023-08-29T16:05:19.900Z,100902.66
2023-08-29T16:07:49.895Z,100908.03
2023-08-29T16:10:18.380Z,100900.88
2023-08-29T16:12:47.386Z,100903.47
2023-08-29T16:15:17.541Z,100903.56
2023-08-29T16:17:46.272Z,100895.03
2023-08-29T16:20:15.964Z,100891.34
2023-08-29T16:22:45.469Z,100896.72
2023-08-29T16:25:13.852Z,100889.94
2023-08-29T16:27:42.457Z,100889.75
2023-08-29T16:30:11.975Z,100894.06
2023-08-29T16:32:41.542Z,100896.28
2023-08-29T16:35:10.011Z,100896.84
2023-08-29T16:37:38.702Z,100890.78
2023-08-29T16:40:07.648Z,100887.78
2023-08-29T16:42:36.193Z,100889.31
2023-08-29T16:45:09.376Z,100895.28
2023-08-29T16:47:37.954Z,100890.59
2023-08-29T16:50:06.718Z,100899.66
2023-08-29T16:52:35.064Z,100896.38
2023-08-29T16:55:04.191Z,100900.75
2023-08-29T16:57:32.747Z,100906.00
2023-08-29T17:00:03.566Z,100904.25
2023-08-29T17:02:32.860Z,100910.81
2023-08-29T17:05:01.408Z,100903.97
2023-08-29T17:07:29.855Z,100904.09
2023-08-29T17:09:58.290Z,100908.19
2023-08-29T17:12:26.664Z,100894.19
2023-08-29T17:14:55.040Z,100908.13
2023-08-29T17:17:23.515Z,100895.25
2023-08-29T17:19:51.959Z,100890.34
2023-08-29T17:22:20.293Z,100904.97
2023-08-29T17:24:48.705Z,100891.94
2023-08-29T17:27:17.860Z,100896.31
2023-08-29T17:29:46.266Z,100897.63
2023-08-29T17:32:15.486Z,100899.34
2023-08-29T17:34:44.842Z,100901.84
2023-08-29T17:37:13.210Z,100897.31
2023-08-29T17:39:41.666Z,100903.19
2023-08-29T17:42:10.072Z,100899.66
2023-08-29T17:44:38.593Z,100896.56
2023-08-29T17:47:07.342Z,100895.19
2023-08-29T17:49:35.724Z,100898.44
2023-08-29T17:52:04.255Z,100893.22
2023-08-29T17:54:32.738Z,100890.91
2023-08-29T17:57:01.126Z,100881.75
2023-08-29T17:59:29.480Z,100890.13
2023-08-29T18:01:57.862Z,100887.84
2023-08-29T18:04:26.221Z,100880.75
2023-08-29T18:06:54.563Z,100881.72
2023-08-29T18:09:23.032Z,100877.56
2023-08-29T18:11:51.469Z,100886.41
2023-08-29T18:14:19.819Z,100894.47
2023-08-29T18:16:49.573Z,100900.13
2023-08-29T18:19:18.159Z,100892.53
2023-08-29T18:21:46.654Z,100881.75
2023-08-29T18:24:15.314Z,100874.47
2023-08-29T18:26:43.637Z,100876.91
2023-08-29T18:29:12.006Z,100875.53
2023-08-29T18:31:40.732Z,100876.84
2023-08-29T18:34:09.126Z,100876.59
2023-08-29T18:36:39.539Z,100882.72
2023-08-29T18:39:09.029Z,100886.44
2023-08-29T18:41:37.469Z,100883.19
2023-08-29T18:44:05.855Z,100881.72
2023-08-29T18:46:34.187Z,100889.63
2023-08-29T18:49:02.564Z,100880.31
2023-08-29T18:51:30.892Z,100885.00
2023-08-29T18:53:59.346Z,100887.75
2023-08-29T18:56:27.756Z,100886.53
2023-08-29T18:58:56.227Z,100891.94
2023-08-29T19:01:24.600Z,100898.88
2023-08-29T19:03:53.214Z,100903.47
2023-08-29T19:06:21.717Z,100899.09
2023-08-29T19:08:51.332Z,100902.06
2023-08-29T19:11:19.690Z,100906.72
2023-08-29T19:13:48.190Z,100907.81
2023-08-29T19:16:16.572Z,100915.31
2023-08-29T19:18:45.463Z,100906.28
2023-08-29T19:21:13.860Z,100902.72
2023-08-29T19:23:42.310Z,100906.03
2023-08-29T19:26:10.703Z,100904.63
2023-08-29T19:28:39.154Z,100912.63
2023-08-29T19:31:07.575Z,100899.66
2023-08-29T19:33:35.994Z,100903.16
2023-08-29T19:36:11.645Z,100900.63
2023-08-29T19:38:41.356Z,100891.31
2023-08-29T19:41:10.348Z,100895.09
2023-08-29T19:43:38.747Z,100893.53
2023-08-29T19:46:07.339Z,100898.06
2023-08-29T19:48:35.761Z,100898.88
2023-08-29T19:51:05.088Z,100888.13
2023-08-29T19:53:36.591Z,100895.34
2023-08-29T19:56:07.133Z,100896.25
2023-08-29T19:58:35.974Z,100887.44
2023-08-29T20:01:05.095Z,100887.47
2023-08-29T20:03:33.617Z,100890.28
2023-08-29T20:06:02.059Z,100885.00
2023-08-29T20:08:30.374Z,100886.25
2023-08-29T20:10:58.899Z,100889.59
2023-08-29T20:13:27.530Z,100891.34
2023-08-29T20:15:56.047Z,100891.16
2023-08-29T20:18:25.242Z,100887.06
2023-08-29T20:20:54.143Z,100890.38
2023-08-29T20:23:22.953Z,100882.91
2023-08-29T20:25:52.907Z,100883.16
2023-08-29T20:28:21.726Z,100890.09
2023-08-29T20:30:56.318Z,100879.34
2023-08-29T20:33:24.846Z,100883.81
2023-08-29T20:35:53.242Z,100880.03
2023-08-29T20:38:22.286Z,100873.38
2023-08-29T20:40:50.676Z,100873.66
2023-08-29T20:43:19.152Z,100867.00
2023-08-29T20:45:47.492Z,100861.50
2023-08-29T20:48:17.052Z,100860.41
2023-08-29T20:50:47.911Z,100857.97
2023-08-29T20:53:16.412Z,100856.88
2023-08-29T20:55:44.999Z,100855.78
2023-08-29T20:58:13.410Z,100858.78
2023-08-29T21:00:42.380Z,100861.22
2023-08-29T21:03:11.003Z,100857.34
2023-08-29T21:05:39.389Z,100861.78
2023-08-29T21:08:08.105Z,100860.72
2023-08-29T21:10:37.093Z,100855.50
2023-08-29T21:13:05.526Z,100856.34
2023-08-29T21:15:39.127Z,100856.34
2023-08-29T21:18:07.897Z,100853.88
2023-08-29T21:20:38.620Z,100855.28
2023-08-29T21:23:07.371Z,100851.19
2023-08-29T21:25:35.687Z,100852.84
2023-08-29T21:28:04.481Z,100844.53
2023-08-29T21:30:33.052Z,100860.03
2023-08-29T21:33:01.482Z,100847.06
2023-08-29T21:35:29.855Z,100851.22
2023-08-29T21:37:58.190Z,100844.56
2023-08-29T21:40:26.512Z,100839.88
2023-08-29T21:42:54.880Z,100842.59
2023-08-29T21:45:23.225Z,100840.91
2023-08-29T21:47:53.228Z,100834.00
2023-08-29T21:50:21.721Z,100846.97
2023-08-29T21:52:50.090Z,100837.88
2023-08-29T21:55:18.518Z,100837.91
2023-08-29T21:57:46.898Z,100838.75
2023-08-29T22:00:16.743Z,100837.66
2023-08-29T22:02:45.283Z,100840.06
2023-08-29T22:05:13.826Z,100836.69
2023-08-29T22:07:42.216Z,100826.78
2023-08-29T22:10:10.845Z,100822.91
2023-08-29T22:12:40.696Z,100819.84
2023-08-29T22:15:09.837Z,100814.88
2023-08-29T22:17:38.716Z,100823.69
2023-08-29T22:20:07.683Z,100825.06
2023-08-29T22:22:36.724Z,100814.91
2023-08-29T22:25:05.324Z,100810.81
2023-08-29T22:27:33.674Z,100814.94
2023-08-29T22:30:02.068Z,100809.97
2023-08-29T22:32:30.581Z,100808.56
2023-08-29T22:34:59.431Z,100812.72
2023-08-29T22:37:27.774Z,100811.09
2023-08-29T22:39:56.122Z,100812.47
2023-08-29T22:42:24.500Z,100806.41
2023-08-29T22:44:52.849Z,100808.31
2023-08-29T22:47:21.246Z,100805.56
2023-08-29T22:49:49.667Z,100809.97
2023-08-29T22:52:19.050Z,100812.72
2023-08-29T22:54:47.423Z,100805.81
2023-08-29T22:57:17.485Z,100797.59
2023-08-29T22:59:45.958Z,100793.41
2023-08-29T23:02:14.632Z,100795.66
2023-08-29T23:04:43.387Z,100793.97
2023-08-29T23:07:12.391Z,100790.66
2023-08-29T23:09:42.710Z,100781.81
2023-08-29T23:12:11.094Z,100791.19
2023-08-29T23:14:39.473Z,100787.91
2023-08-29T23:17:09.736Z,100783.22
2023-08-29T23:19:38.234Z,100788.19
2023-08-29T23:22:07.107Z,100779.94
2023-08-29T23:24:35.466Z,100784.94
2023-08-29T23:27:06.742Z,100771.44
2023-08-29T23:29:37.207Z,100773.63
2023-08-29T23:32:06.116Z,100772.28
2023-08-29T23:34:34.430Z,100757.38
2023-08-29T23:37:02.914Z,100765.09
2023-08-29T23:39:31.372Z,100760.16
2023-08-29T23:42:01.128Z,100753.53
2023-08-29T23:44:29.735Z,100750.78
2023-08-29T23:46:58.487Z,100748.59
2023-08-29T23:49:28.387Z,100745.56
2023-08-29T23:51:56.764Z,100738.72
2023-08-29T23:54:28.234Z,100740.34
2023-08-29T23:56:56.805Z,100734.84
2023-08-29T23:59:25.307Z,100726.06
